Search for airport 
image banner adimage banner adimage banner ad
image banner ad

IA02 - Paradise Mountain

Located in Sidney, United States

ICAO - IA02, IATA -

Data provided by Airmate  

General information

Coordinates: N40°44'53" W95°40'15"
Elevation is 1155 feet MSL.
 
View others Airports in Iowa

Operational data

Special qualification required
Current time UTC:
Current local time:
Weather at : KSDA - Shenandoah Muni ( 22 km )
METAR: KSDA 181655Z AUTO 35006KT 6SM HZ CLR 31/18 A2987 RMK AO2
View NOTAMs / SUP AIP / TFR affecting this airport [VIEW]
Communications frequencies: [VIEW]

Runways:

RWY identifierQFULength (ft)Width (ft)SurfaceLDA (ft)
16162°223560GRASS
34342°223560GRASS

Airport contact information

Address: Sidney United States

Satellite view of IA02